sensor_id;sensor_type;location;lat;lon;timestamp;temperature;humidity
21540;DHT22;10931;52.164;5.518;2023-04-15T00:01:22;20.70;58.40
21540;DHT22;10931;52.164;5.518;2023-04-15T00:03:51;20.70;58.50
21540;DHT22;10931;52.164;5.518;2023-04-15T00:06:24;20.70;58.40
21540;DHT22;10931;52.164;5.518;2023-04-15T00:08:50;20.70;58.50
21540;DHT22;10931;52.164;5.518;2023-04-15T00:11:17;20.70;58.40
21540;DHT22;10931;52.164;5.518;2023-04-15T00:13:42;20.60;58.40
21540;DHT22;10931;52.164;5.518;2023-04-15T00:16:17;20.60;58.40
21540;DHT22;10931;52.164;5.518;2023-04-15T00:18:43;20.60;58.40
21540;DHT22;10931;52.164;5.518;2023-04-15T00:21:09;20.60;58.40
21540;DHT22;10931;52.164;5.518;2023-04-15T00:23:34;20.60;58.40
21540;DHT22;10931;52.164;5.518;2023-04-15T00:26:01;20.60;58.40
21540;DHT22;10931;52.164;5.518;2023-04-15T00:28:27;20.60;58.40
21540;DHT22;10931;52.164;5.518;2023-04-15T00:30:52;20.60;58.40
21540;DHT22;10931;52.164;5.518;2023-04-15T00:33:24;20.60;58.40
21540;DHT22;10931;52.164;5.518;2023-04-15T00:35:50;20.60;58.50
21540;DHT22;10931;52.164;5.518;2023-04-15T00:38:16;20.60;58.40
21540;DHT22;10931;52.164;5.518;2023-04-15T00:40:47;20.60;58.50
21540;DHT22;10931;52.164;5.518;2023-04-15T00:43:13;20.50;58.40
21540;DHT22;10931;52.164;5.518;2023-04-15T00:45:51;20.50;58.40
21540;DHT22;10931;52.164;5.518;2023-04-15T00:48:18;20.50;58.40
21540;DHT22;10931;52.164;5.518;2023-04-15T00:50:43;20.50;58.40
21540;DHT22;10931;52.164;5.518;2023-04-15T00:53:09;20.50;58.40
21540;DHT22;10931;52.164;5.518;2023-04-15T00:55:35;20.50;58.40
21540;DHT22;10931;52.164;5.518;2023-04-15T00:58:01;20.50;58.40
21540;DHT22;10931;52.164;5.518;2023-04-15T01:00:27;20.50;58.40
21540;DHT22;10931;52.164;5.518;2023-04-15T01:03:05;20.50;58.40
21540;DHT22;10931;52.164;5.518;2023-04-15T01:05:31;20.40;58.40
21540;DHT22;10931;52.164;5.518;2023-04-15T01:07:58;20.40;58.40
21540;DHT22;10931;52.164;5.518;2023-04-15T01:10:23;20.40;58.40
21540;DHT22;10931;52.164;5.518;2023-04-15T01:12:49;20.40;58.40
21540;DHT22;10931;52.164;5.518;2023-04-15T01:15:15;20.40;58.40
21540;DHT22;10931;52.164;5.518;2023-04-15T01:17:41;20.40;58.40
21540;DHT22;10931;52.164;5.518;2023-04-15T01:20:18;20.40;58.40
21540;DHT22;10931;52.164;5.518;2023-04-15T01:22:44;20.40;58.40
21540;DHT22;10931;52.164;5.518;2023-04-15T01:25:12;20.40;58.40
21540;DHT22;10931;52.164;5.518;2023-04-15T01:27:44;20.40;58.40
21540;DHT22;10931;52.164;5.518;2023-04-15T01:30:11;20.40;58.40
21540;DHT22;10931;52.164;5.518;2023-04-15T01:32:37;20.40;58.40
21540;DHT22;10931;52.164;5.518;2023-04-15T01:35:05;20.40;58.40
21540;DHT22;10931;52.164;5.518;2023-04-15T01:37:31;20.30;58.30
21540;DHT22;10931;52.164;5.518;2023-04-15T01:39:57;20.30;58.30
21540;DHT22;10931;52.164;5.518;2023-04-15T01:42:23;20.40;58.40
21540;DHT22;10931;52.164;5.518;2023-04-15T01:44:52;20.30;58.30
21540;DHT22;10931;52.164;5.518;2023-04-15T01:47:18;20.30;58.30
21540;DHT22;10931;52.164;5.518;2023-04-15T01:49:43;20.30;58.30
21540;DHT22;10931;52.164;5.518;2023-04-15T01:52:10;20.30;58.30
21540;DHT22;10931;52.164;5.518;2023-04-15T01:54:36;20.30;58.30
21540;DHT22;10931;52.164;5.518;2023-04-15T01:57:01;20.30;58.30
21540;DHT22;10931;52.164;5.518;2023-04-15T01:59:29;20.20;58.30
21540;DHT22;10931;52.164;5.518;2023-04-15T02:01:56;20.30;58.30
21540;DHT22;10931;52.164;5.518;2023-04-15T02:04:23;20.30;58.30
21540;DHT22;10931;52.164;5.518;2023-04-15T02:06:58;20.20;58.30
21540;DHT22;10931;52.164;5.518;2023-04-15T02:09:24;20.20;58.30
21540;DHT22;10931;52.164;5.518;2023-04-15T02:11:55;20.20;58.30
21540;DHT22;10931;52.164;5.518;2023-04-15T02:14:21;20.20;58.30
21540;DHT22;10931;52.164;5.518;2023-04-15T02:16:46;20.20;58.30
21540;DHT22;10931;52.164;5.518;2023-04-15T02:19:16;20.20;58.30
21540;DHT22;10931;52.164;5.518;2023-04-15T02:21:42;20.20;58.30
21540;DHT22;10931;52.164;5.518;2023-04-15T02:24:13;20.20;58.30
21540;DHT22;10931;52.164;5.518;2023-04-15T02:26:39;20.20;58.30
21540;DHT22;10931;52.164;5.518;2023-04-15T02:29:27;20.20;58.30
21540;DHT22;10931;52.164;5.518;2023-04-15T02:31:53;20.10;58.30
21540;DHT22;10931;52.164;5.518;2023-04-15T02:34:30;20.10;58.30
21540;DHT22;10931;52.164;5.518;2023-04-15T02:36:58;20.10;58.30
21540;DHT22;10931;52.164;5.518;2023-04-15T02:39:23;20.10;58.30
21540;DHT22;10931;52.164;5.518;2023-04-15T02:41:49;20.10;58.30
21540;DHT22;10931;52.164;5.518;2023-04-15T02:44:18;20.10;58.30
21540;DHT22;10931;52.164;5.518;2023-04-15T02:46:47;20.10;58.30
21540;DHT22;10931;52.164;5.518;2023-04-15T02:49:17;20.10;58.30
21540;DHT22;10931;52.164;5.518;2023-04-15T02:51:42;20.00;58.20
21540;DHT22;10931;52.164;5.518;2023-04-15T02:54:09;20.10;58.30
21540;DHT22;10931;52.164;5.518;2023-04-15T02:56:35;20.10;58.30
21540;DHT22;10931;52.164;5.518;2023-04-15T02:59:00;20.10;58.30
21540;DHT22;10931;52.164;5.518;2023-04-15T03:01:28;20.00;58.30
21540;DHT22;10931;52.164;5.518;2023-04-15T03:03:54;20.00;58.30
21540;DHT22;10931;52.164;5.518;2023-04-15T03:06:20;20.00;58.30
21540;DHT22;10931;52.164;5.518;2023-04-15T03:08:46;20.00;58.20
21540;DHT22;10931;52.164;5.518;2023-04-15T03:11:11;20.00;58.30
21540;DHT22;10931;52.164;5.518;2023-04-15T03:13:46;20.00;58.30
21540;DHT22;10931;52.164;5.518;2023-04-15T03:16:12;20.00;58.30
21540;DHT22;10931;52.164;5.518;2023-04-15T03:18:38;20.00;58.30
21540;DHT22;10931;52.164;5.518;2023-04-15T03:21:03;20.00;58.30
21540;DHT22;10931;52.164;5.518;2023-04-15T03:23:30;19.90;58.20
21540;DHT22;10931;52.164;5.518;2023-04-15T03:25:55;19.90;58.30
21540;DHT22;10931;52.164;5.518;2023-04-15T03:28:26;19.90;58.20
21540;DHT22;10931;52.164;5.518;2023-04-15T03:30:52;19.90;58.20
21540;DHT22;10931;52.164;5.518;2023-04-15T03:33:18;19.90;58.90
21540;DHT22;10931;52.164;5.518;2023-04-15T03:35:51;19.90;58.20
21540;DHT22;10931;52.164;5.518;2023-04-15T03:38:18;19.90;58.30
21540;DHT22;10931;52.164;5.518;2023-04-15T03:40:51;19.90;58.20
21540;DHT22;10931;52.164;5.518;2023-04-15T03:43:21;19.90;58.30
21540;DHT22;10931;52.164;5.518;2023-04-15T03:45:47;19.90;58.30
21540;DHT22;10931;52.164;5.518;2023-04-15T03:48:12;19.80;58.20
21540;DHT22;10931;52.164;5.518;2023-04-15T03:50:38;19.80;58.20
21540;DHT22;10931;52.164;5.518;2023-04-15T03:53:03;19.80;58.20
21540;DHT22;10931;52.164;5.518;2023-04-15T03:55:29;19.80;58.30
21540;DHT22;10931;52.164;5.518;2023-04-15T03:57:55;19.80;58.30
21540;DHT22;10931;52.164;5.518;2023-04-15T04:00:28;19.80;58.20
21540;DHT22;10931;52.164;5.518;2023-04-15T04:02:53;19.80;58.20
21540;DHT22;10931;52.164;5.518;2023-04-15T04:05:19;19.80;58.20
21540;DHT22;10931;52.164;5.518;2023-04-15T04:07:45;19.80;58.20
21540;DHT22;10931;52.164;5.518;2023-04-15T04:10:10;19.80;58.20
21540;DHT22;10931;52.164;5.518;2023-04-15T04:12:36;19.80;58.20
21540;DHT22;10931;52.164;5.518;2023-04-15T04:15:02;19.70;58.20
21540;DHT22;10931;52.164;5.518;2023-04-15T04:17:28;19.70;58.20
21540;DHT22;10931;52.164;5.518;2023-04-15T04:19:53;19.70;58.20
21540;DHT22;10931;52.164;5.518;2023-04-15T04:22:22;19.70;58.20
21540;DHT22;10931;52.164;5.518;2023-04-15T04:24:52;19.70;58.20
21540;DHT22;10931;52.164;5.518;2023-04-15T04:27:18;19.70;58.20
21540;DHT22;10931;52.164;5.518;2023-04-15T04:29:44;19.70;58.20
21540;DHT22;10931;52.164;5.518;2023-04-15T04:32:12;19.70;58.20
21540;DHT22;10931;52.164;5.518;2023-04-15T04:34:37;19.70;58.20
21540;DHT22;10931;52.164;5.518;2023-04-15T04:37:03;19.70;58.20
21540;DHT22;10931;52.164;5.518;2023-04-15T04:39:28;19.70;58.30
21540;DHT22;10931;52.164;5.518;2023-04-15T04:41:54;19.60;58.20
21540;DHT22;10931;52.164;5.518;2023-04-15T04:44:20;19.60;58.20
21540;DHT22;10931;52.164;5.518;2023-04-15T04:46:46;19.60;58.20
21540;DHT22;10931;52.164;5.518;2023-04-15T04:49:12;19.60;58.20
21540;DHT22;10931;52.164;5.518;2023-04-15T04:51:37;19.60;58.20
21540;DHT22;10931;52.164;5.518;2023-04-15T04:54:03;19.60;58.20
21540;DHT22;10931;52.164;5.518;2023-04-15T04:56:31;19.60;58.20
21540;DHT22;10931;52.164;5.518;2023-04-15T04:58:58;19.60;58.20
21540;DHT22;10931;52.164;5.518;2023-04-15T05:01:24;19.60;58.20
21540;DHT22;10931;52.164;5.518;2023-04-15T05:03:51;19.60;58.20
21540;DHT22;10931;52.164;5.518;2023-04-15T05:06:17;19.50;58.10
21540;DHT22;10931;52.164;5.518;2023-04-15T05:08:43;19.50;58.10
21540;DHT22;10931;52.164;5.518;2023-04-15T05:11:08;19.50;58.20
21540;DHT22;10931;52.164;5.518;2023-04-15T05:13:34;19.50;58.20
21540;DHT22;10931;52.164;5.518;2023-04-15T05:16:04;19.60;58.20
21540;DHT22;10931;52.164;5.518;2023-04-15T05:18:29;19.50;58.10
21540;DHT22;10931;52.164;5.518;2023-04-15T05:20:55;19.50;58.10
21540;DHT22;10931;52.164;5.518;2023-04-15T05:23:21;19.50;58.10
21540;DHT22;10931;52.164;5.518;2023-04-15T05:25:47;19.50;58.20
21540;DHT22;10931;52.164;5.518;2023-04-15T05:28:13;19.50;58.20
21540;DHT22;10931;52.164;5.518;2023-04-15T05:30:39;19.40;58.10
21540;DHT22;10931;52.164;5.518;2023-04-15T05:33:04;19.50;58.10
21540;DHT22;10931;52.164;5.518;2023-04-15T05:35:30;19.50;58.10
21540;DHT22;10931;52.164;5.518;2023-04-15T05:37:56;19.40;58.10
21540;DHT22;10931;52.164;5.518;2023-04-15T05:40:21;19.50;58.20
21540;DHT22;10931;52.164;5.518;2023-04-15T05:42:50;19.40;58.10
21540;DHT22;10931;52.164;5.518;2023-04-15T05:45:16;19.40;58.10
21540;DHT22;10931;52.164;5.518;2023-04-15T05:47:41;19.40;58.10
21540;DHT22;10931;52.164;5.518;2023-04-15T05:50:07;19.40;58.10
21540;DHT22;10931;52.164;5.518;2023-04-15T05:52:33;19.40;58.10
21540;DHT22;10931;52.164;5.518;2023-04-15T05:54:59;19.40;58.10
21540;DHT22;10931;52.164;5.518;2023-04-15T05:57:25;19.40;58.10
21540;DHT22;10931;52.164;5.518;2023-04-15T05:59:50;19.40;58.10
21540;DHT22;10931;52.164;5.518;2023-04-15T06:02:17;19.40;58.10
21540;DHT22;10931;52.164;5.518;2023-04-15T06:04:42;19.30;58.00
21540;DHT22;10931;52.164;5.518;2023-04-15T06:07:08;19.30;58.10
21540;DHT22;10931;52.164;5.518;2023-04-15T06:09:34;19.30;58.00
21540;DHT22;10931;52.164;5.518;2023-04-15T06:12:00;19.30;58.00
21540;DHT22;10931;52.164;5.518;2023-04-15T06:14:26;19.30;58.00
21540;DHT22;10931;52.164;5.518;2023-04-15T06:16:52;19.30;58.00
21540;DHT22;10931;52.164;5.518;2023-04-15T06:19:18;19.30;58.00
21540;DHT22;10931;52.164;5.518;2023-04-15T06:21:43;19.30;58.00
21540;DHT22;10931;52.164;5.518;2023-04-15T06:24:10;19.30;58.00
21540;DHT22;10931;52.164;5.518;2023-04-15T06:26:36;19.30;58.00
21540;DHT22;10931;52.164;5.518;2023-04-15T06:29:01;19.20;58.00
21540;DHT22;10931;52.164;5.518;2023-04-15T06:31:27;19.20;58.00
21540;DHT22;10931;52.164;5.518;2023-04-15T06:33:53;19.20;58.00
21540;DHT22;10931;52.164;5.518;2023-04-15T06:36:18;19.20;58.00
21540;DHT22;10931;52.164;5.518;2023-04-15T06:38:47;19.20;58.70
21540;DHT22;10931;52.164;5.518;2023-04-15T06:41:17;19.20;58.00
21540;DHT22;10931;52.164;5.518;2023-04-15T06:44:03;19.30;58.10
21540;DHT22;10931;52.164;5.518;2023-04-15T06:46:44;19.20;58.00
21540;DHT22;10931;52.164;5.518;2023-04-15T06:49:19;19.20;58.00
21540;DHT22;10931;52.164;5.518;2023-04-15T06:51:50;19.20;58.00
21540;DHT22;10931;52.164;5.518;2023-04-15T06:54:16;19.20;58.00
21540;DHT22;10931;52.164;5.518;2023-04-15T06:56:59;19.20;58.00
21540;DHT22;10931;52.164;5.518;2023-04-15T06:59:25;19.20;58.10
21540;DHT22;10931;52.164;5.518;2023-04-15T07:01:51;19.20;58.00
21540;DHT22;10931;52.164;5.518;2023-04-15T07:04:21;19.10;58.00
21540;DHT22;10931;52.164;5.518;2023-04-15T07:06:52;19.20;58.00
21540;DHT22;10931;52.164;5.518;2023-04-15T07:09:37;19.10;58.00
21540;DHT22;10931;52.164;5.518;2023-04-15T07:12:06;19.10;58.00
21540;DHT22;10931;52.164;5.518;2023-04-15T07:14:32;19.10;58.00
21540;DHT22;10931;52.164;5.518;2023-04-15T07:16:59;19.10;58.00
21540;DHT22;10931;52.164;5.518;2023-04-15T07:19:25;19.10;58.00
21540;DHT22;10931;52.164;5.518;2023-04-15T07:21:51;19.10;58.00
21540;DHT22;10931;52.164;5.518;2023-04-15T07:24:17;19.10;58.00
21540;DHT22;10931;52.164;5.518;2023-04-15T07:26:44;19.10;58.00
21540;DHT22;10931;52.164;5.518;2023-04-15T07:29:10;19.10;58.00
21540;DHT22;10931;52.164;5.518;2023-04-15T07:31:36;19.10;58.00
21540;DHT22;10931;52.164;5.518;2023-04-15T07:34:02;19.10;58.00
21540;DHT22;10931;52.164;5.518;2023-04-15T07:36:29;19.10;58.00
21540;DHT22;10931;52.164;5.518;2023-04-15T07:38:56;19.00;58.00
21540;DHT22;10931;52.164;5.518;2023-04-15T07:41:22;19.10;58.00
21540;DHT22;10931;52.164;5.518;2023-04-15T07:43:48;19.10;58.00
21540;DHT22;10931;52.164;5.518;2023-04-15T07:46:14;19.00;58.20
21540;DHT22;10931;52.164;5.518;2023-04-15T07:48:40;19.00;58.00
21540;DHT22;10931;52.164;5.518;2023-04-15T07:51:07;19.00;58.00
21540;DHT22;10931;52.164;5.518;2023-04-15T07:53:37;19.00;58.00
21540;DHT22;10931;52.164;5.518;2023-04-15T07:56:07;19.00;58.00
21540;DHT22;10931;52.164;5.518;2023-04-15T07:58:32;19.00;58.00
21540;DHT22;10931;52.164;5.518;2023-04-15T08:00:58;19.00;58.00
21540;DHT22;10931;52.164;5.518;2023-04-15T08:03:24;19.00;57.90
21540;DHT22;10931;52.164;5.518;2023-04-15T08:05:50;19.00;58.00
21540;DHT22;10931;52.164;5.518;2023-04-15T08:08:15;19.00;57.90
21540;DHT22;10931;52.164;5.518;2023-04-15T08:10:41;19.00;57.90
21540;DHT22;10931;52.164;5.518;2023-04-15T08:13:07;19.00;58.00
21540;DHT22;10931;52.164;5.518;2023-04-15T08:15:35;19.00;57.90
21540;DHT22;10931;52.164;5.518;2023-04-15T08:18:01;19.00;57.90
21540;DHT22;10931;52.164;5.518;2023-04-15T08:20:27;19.00;57.90
21540;DHT22;10931;52.164;5.518;2023-04-15T08:22:53;19.00;57.90
21540;DHT22;10931;52.164;5.518;2023-04-15T08:25:18;19.00;57.90
21540;DHT22;10931;52.164;5.518;2023-04-15T08:27:47;19.00;57.90
21540;DHT22;10931;52.164;5.518;2023-04-15T08:30:13;19.00;57.90
21540;DHT22;10931;52.164;5.518;2023-04-15T08:32:41;19.00;57.90
21540;DHT22;10931;52.164;5.518;2023-04-15T08:35:07;19.00;57.90
21540;DHT22;10931;52.164;5.518;2023-04-15T08:40:10;19.00;57.90
21540;DHT22;10931;52.164;5.518;2023-04-15T08:42:56;19.00;57.90
21540;DHT22;10931;52.164;5.518;2023-04-15T08:45:23;19.00;57.90
21540;DHT22;10931;52.164;5.518;2023-04-15T08:47:55;19.00;57.90
21540;DHT22;10931;52.164;5.518;2023-04-15T08:50:21;19.00;57.90
21540;DHT22;10931;52.164;5.518;2023-04-15T08:52:49;19.00;57.90
21540;DHT22;10931;52.164;5.518;2023-04-15T08:55:21;19.00;57.80
21540;DHT22;10931;52.164;5.518;2023-04-15T08:57:48;19.00;57.80
21540;DHT22;10931;52.164;5.518;2023-04-15T09:00:14;19.00;57.80
21540;DHT22;10931;52.164;5.518;2023-04-15T09:02:43;19.00;57.80
21540;DHT22;10931;52.164;5.518;2023-04-15T09:05:08;19.00;57.80
21540;DHT22;10931;52.164;5.518;2023-04-15T09:07:34;19.00;57.80
21540;DHT22;10931;52.164;5.518;2023-04-15T09:10:02;19.00;57.80
21540;DHT22;10931;52.164;5.518;2023-04-15T09:12:28;19.00;57.80
21540;DHT22;10931;52.164;5.518;2023-04-15T09:14:54;19.00;57.80
21540;DHT22;10931;52.164;5.518;2023-04-15T09:17:19;19.00;57.70
21540;DHT22;10931;52.164;5.518;2023-04-15T09:20:09;19.00;57.70
21540;DHT22;10931;52.164;5.518;2023-04-15T09:22:36;19.00;57.70
21540;DHT22;10931;52.164;5.518;2023-04-15T09:25:02;19.00;57.70
21540;DHT22;10931;52.164;5.518;2023-04-15T09:27:28;19.00;57.80
21540;DHT22;10931;52.164;5.518;2023-04-15T09:29:54;19.00;57.70
21540;DHT22;10931;52.164;5.518;2023-04-15T09:32:20;19.00;57.70
21540;DHT22;10931;52.164;5.518;2023-04-15T09:34:47;19.00;57.70
21540;DHT22;10931;52.164;5.518;2023-04-15T09:37:13;19.00;57.70
21540;DHT22;10931;52.164;5.518;2023-04-15T09:39:50;19.00;57.70
21540;DHT22;10931;52.164;5.518;2023-04-15T09:42:17;19.00;58.30
21540;DHT22;10931;52.164;5.518;2023-04-15T09:44:49;19.00;57.70
21540;DHT22;10931;52.164;5.518;2023-04-15T09:47:28;19.00;57.70
21540;DHT22;10931;52.164;5.518;2023-04-15T09:49:55;19.00;57.70
21540;DHT22;10931;52.164;5.518;2023-04-15T09:52:24;19.00;57.70
21540;DHT22;10931;52.164;5.518;2023-04-15T09:54:57;19.00;57.60
21540;DHT22;10931;52.164;5.518;2023-04-15T09:57:23;19.00;57.60
21540;DHT22;10931;52.164;5.518;2023-04-15T09:59:54;19.00;57.60
21540;DHT22;10931;52.164;5.518;2023-04-15T10:02:26;19.00;57.60
21540;DHT22;10931;52.164;5.518;2023-04-15T10:04:56;19.00;57.60
21540;DHT22;10931;52.164;5.518;2023-04-15T10:07:22;19.00;57.60
21540;DHT22;10931;52.164;5.518;2023-04-15T10:09:48;19.00;57.50
21540;DHT22;10931;52.164;5.518;2023-04-15T10:12:18;19.00;57.50
21540;DHT22;10931;52.164;5.518;2023-04-15T10:17:49;19.10;57.50
21540;DHT22;10931;52.164;5.518;2023-04-15T10:20:16;19.00;57.50
21540;DHT22;10931;52.164;5.518;2023-04-15T10:22:50;19.10;57.50
21540;DHT22;10931;52.164;5.518;2023-04-15T10:25:17;19.00;58.10
21540;DHT22;10931;52.164;5.518;2023-04-15T10:27:44;19.10;57.50
21540;DHT22;10931;52.164;5.518;2023-04-15T10:30:10;19.10;57.50
21540;DHT22;10931;52.164;5.518;2023-04-15T10:32:39;19.10;57.40
21540;DHT22;10931;52.164;5.518;2023-04-15T10:35:05;19.10;57.40
21540;DHT22;10931;52.164;5.518;2023-04-15T10:37:34;19.10;57.40
21540;DHT22;10931;52.164;5.518;2023-04-15T10:40:00;19.10;57.40
21540;DHT22;10931;52.164;5.518;2023-04-15T10:42:33;19.10;57.40
21540;DHT22;10931;52.164;5.518;2023-04-15T10:44:59;19.10;57.40
21540;DHT22;10931;52.164;5.518;2023-04-15T10:47:25;19.10;57.40
21540;DHT22;10931;52.164;5.518;2023-04-15T10:49:56;19.10;57.30
21540;DHT22;10931;52.164;5.518;2023-04-15T10:52:24;19.10;57.40
21540;DHT22;10931;52.164;5.518;2023-04-15T10:57:40;19.20;57.40
21540;DHT22;10931;52.164;5.518;2023-04-15T11:00:11;19.10;57.30
21540;DHT22;10931;52.164;5.518;2023-04-15T11:02:50;19.20;57.30
21540;DHT22;10931;52.164;5.518;2023-04-15T11:05:18;19.10;57.30
21540;DHT22;10931;52.164;5.518;2023-04-15T11:07:51;19.20;57.30
21540;DHT22;10931;52.164;5.518;2023-04-15T11:12:46;19.20;57.30
21540;DHT22;10931;52.164;5.518;2023-04-15T11:15:40;19.20;57.30
21540;DHT22;10931;52.164;5.518;2023-04-15T11:18:19;19.20;57.30
21540;DHT22;10931;52.164;5.518;2023-04-15T11:25:55;19.20;57.30
21540;DHT22;10931;52.164;5.518;2023-04-15T11:28:28;19.20;57.30
21540;DHT22;10931;52.164;5.518;2023-04-15T11:30:55;19.20;57.30
21540;DHT22;10931;52.164;5.518;2023-04-15T11:33:22;19.20;57.20
21540;DHT22;10931;52.164;5.518;2023-04-15T11:35:48;19.20;57.20
21540;DHT22;10931;52.164;5.518;2023-04-15T11:38:15;19.30;57.30
21540;DHT22;10931;52.164;5.518;2023-04-15T11:40:42;19.30;57.20
21540;DHT22;10931;52.164;5.518;2023-04-15T11:43:09;19.30;57.20
21540;DHT22;10931;52.164;5.518;2023-04-15T11:45:37;19.30;57.20
21540;DHT22;10931;52.164;5.518;2023-04-15T11:48:10;19.30;57.20
21540;DHT22;10931;52.164;5.518;2023-04-15T11:50:37;19.30;57.20
21540;DHT22;10931;52.164;5.518;2023-04-15T11:53:06;19.30;57.20
21540;DHT22;10931;52.164;5.518;2023-04-15T11:55:42;19.40;57.30
21540;DHT22;10931;52.164;5.518;2023-04-15T12:00:45;19.40;57.20
21540;DHT22;10931;52.164;5.518;2023-04-15T12:03:25;19.40;57.20
21540;DHT22;10931;52.164;5.518;2023-04-15T12:11:39;19.40;57.20
21540;DHT22;10931;52.164;5.518;2023-04-15T12:16:51;19.50;57.20
21540;DHT22;10931;52.164;5.518;2023-04-15T12:19:24;19.50;57.20
21540;DHT22;10931;52.164;5.518;2023-04-15T12:21:52;19.50;57.10
21540;DHT22;10931;52.164;5.518;2023-04-15T12:24:20;19.50;57.10
21540;DHT22;10931;52.164;5.518;2023-04-15T12:26:54;19.50;57.10
21540;DHT22;10931;52.164;5.518;2023-04-15T12:29:27;19.50;57.10
21540;DHT22;10931;52.164;5.518;2023-04-15T12:32:12;19.50;57.10
21540;DHT22;10931;52.164;5.518;2023-04-15T12:34:49;19.50;57.00
21540;DHT22;10931;52.164;5.518;2023-04-15T12:37:15;19.60;57.10
21540;DHT22;10931;52.164;5.518;2023-04-15T12:39:42;19.60;57.10
21540;DHT22;10931;52.164;5.518;2023-04-15T12:42:09;19.60;57.10
21540;DHT22;10931;52.164;5.518;2023-04-15T12:44:36;19.60;57.10
21540;DHT22;10931;52.164;5.518;2023-04-15T12:47:02;19.60;57.00
21540;DHT22;10931;52.164;5.518;2023-04-15T12:49:29;19.60;57.00
21540;DHT22;10931;52.164;5.518;2023-04-15T12:51:56;19.60;57.00
21540;DHT22;10931;52.164;5.518;2023-04-15T12:54:24;19.60;56.90
21540;DHT22;10931;52.164;5.518;2023-04-15T12:56:51;19.60;56.90
21540;DHT22;10931;52.164;5.518;2023-04-15T12:59:17;19.60;56.90
21540;DHT22;10931;52.164;5.518;2023-04-15T13:01:43;19.60;56.90
21540;DHT22;10931;52.164;5.518;2023-04-15T13:04:09;19.60;56.90
21540;DHT22;10931;52.164;5.518;2023-04-15T13:06:35;19.60;56.80
21540;DHT22;10931;52.164;5.518;2023-04-15T13:09:02;19.70;56.90
21540;DHT22;10931;52.164;5.518;2023-04-15T13:11:28;19.70;56.90
21540;DHT22;10931;52.164;5.518;2023-04-15T13:14:02;19.70;57.50
21540;DHT22;10931;52.164;5.518;2023-04-15T13:16:29;19.70;56.80
21540;DHT22;10931;52.164;5.518;2023-04-15T13:18:58;19.70;56.80
21540;DHT22;10931;52.164;5.518;2023-04-15T13:21:24;19.70;56.80
21540;DHT22;10931;52.164;5.518;2023-04-15T13:23:49;19.70;56.80
21540;DHT22;10931;52.164;5.518;2023-04-15T13:26:19;19.70;57.40
21540;DHT22;10931;52.164;5.518;2023-04-15T13:28:45;19.70;57.40
21540;DHT22;10931;52.164;5.518;2023-04-15T13:31:11;19.70;56.70
21540;DHT22;10931;52.164;5.518;2023-04-15T13:33:36;19.70;56.70
21540;DHT22;10931;52.164;5.518;2023-04-15T13:36:04;19.70;56.70
21540;DHT22;10931;52.164;5.518;2023-04-15T13:38:33;19.70;56.70
21540;DHT22;10931;52.164;5.518;2023-04-15T13:41:00;19.70;56.60
21540;DHT22;10931;52.164;5.518;2023-04-15T13:43:26;19.70;56.60
21540;DHT22;10931;52.164;5.518;2023-04-15T13:45:52;19.70;56.60
21540;DHT22;10931;52.164;5.518;2023-04-15T13:48:17;19.70;56.60
21540;DHT22;10931;52.164;5.518;2023-04-15T13:50:43;19.70;56.60
21540;DHT22;10931;52.164;5.518;2023-04-15T13:53:11;19.70;56.60
21540;DHT22;10931;52.164;5.518;2023-04-15T13:55:38;19.70;56.60
21540;DHT22;10931;52.164;5.518;2023-04-15T13:58:15;19.70;56.60
21540;DHT22;10931;52.164;5.518;2023-04-15T14:00:41;19.70;56.60
21540;DHT22;10931;52.164;5.518;2023-04-15T14:03:11;19.70;56.60
21540;DHT22;10931;52.164;5.518;2023-04-15T14:05:37;19.70;56.60
21540;DHT22;10931;52.164;5.518;2023-04-15T14:08:04;19.70;56.60
21540;DHT22;10931;52.164;5.518;2023-04-15T14:10:31;19.80;56.60
21540;DHT22;10931;52.164;5.518;2023-04-15T14:12:56;19.70;56.60
21540;DHT22;10931;52.164;5.518;2023-04-15T14:15:25;19.70;56.60
21540;DHT22;10931;52.164;5.518;2023-04-15T14:17:51;19.70;56.60
21540;DHT22;10931;52.164;5.518;2023-04-15T14:20:17;19.70;56.60
21540;DHT22;10931;52.164;5.518;2023-04-15T14:22:43;19.70;56.50
21540;DHT22;10931;52.164;5.518;2023-04-15T14:25:11;19.70;56.50
21540;DHT22;10931;52.164;5.518;2023-04-15T14:27:37;19.70;56.50
21540;DHT22;10931;52.164;5.518;2023-04-15T14:30:04;19.70;56.50
21540;DHT22;10931;52.164;5.518;2023-04-15T14:32:30;19.70;56.50
21540;DHT22;10931;52.164;5.518;2023-04-15T14:34:56;19.70;56.50
21540;DHT22;10931;52.164;5.518;2023-04-15T14:37:21;19.70;56.50
21540;DHT22;10931;52.164;5.518;2023-04-15T14:39:47;19.70;56.50
21540;DHT22;10931;52.164;5.518;2023-04-15T14:42:13;19.70;56.50
21540;DHT22;10931;52.164;5.518;2023-04-15T14:44:38;19.70;56.50
21540;DHT22;10931;52.164;5.518;2023-04-15T14:47:04;19.70;56.50
21540;DHT22;10931;52.164;5.518;2023-04-15T14:49:31;19.70;56.50
21540;DHT22;10931;52.164;5.518;2023-04-15T14:51:56;19.70;56.50
21540;DHT22;10931;52.164;5.518;2023-04-15T14:54:22;19.70;56.60
21540;DHT22;10931;52.164;5.518;2023-04-15T14:56:48;19.70;56.60
21540;DHT22;10931;52.164;5.518;2023-04-15T14:59:13;19.70;56.60
21540;DHT22;10931;52.164;5.518;2023-04-15T15:01:42;19.70;56.60
21540;DHT22;10931;52.164;5.518;2023-04-15T15:04:13;19.70;56.60
21540;DHT22;10931;52.164;5.518;2023-04-15T15:06:39;19.70;56.60
21540;DHT22;10931;52.164;5.518;2023-04-15T15:09:05;19.70;56.60
21540;DHT22;10931;52.164;5.518;2023-04-15T15:11:36;19.70;56.60
21540;DHT22;10931;52.164;5.518;2023-04-15T15:14:02;19.70;56.60
21540;DHT22;10931;52.164;5.518;2023-04-15T15:16:28;19.70;56.60
21540;DHT22;10931;52.164;5.518;2023-04-15T15:18:54;19.70;56.60
21540;DHT22;10931;52.164;5.518;2023-04-15T15:21:20;19.70;56.60
21540;DHT22;10931;52.164;5.518;2023-04-15T15:23:50;19.70;56.60
21540;DHT22;10931;52.164;5.518;2023-04-15T15:26:18;19.70;56.60
21540;DHT22;10931;52.164;5.518;2023-04-15T15:28:46;19.70;56.60
21540;DHT22;10931;52.164;5.518;2023-04-15T15:31:21;19.70;56.60
21540;DHT22;10931;52.164;5.518;2023-04-15T15:33:49;19.70;56.60
21540;DHT22;10931;52.164;5.518;2023-04-15T15:36:17;19.70;56.60
21540;DHT22;10931;52.164;5.518;2023-04-15T15:38:43;19.70;56.60
21540;DHT22;10931;52.164;5.518;2023-04-15T15:41:10;19.70;56.60
21540;DHT22;10931;52.164;5.518;2023-04-15T15:43:36;19.60;56.50
21540;DHT22;10931;52.164;5.518;2023-04-15T15:46:03;19.70;56.60
21540;DHT22;10931;52.164;5.518;2023-04-15T15:48:38;19.70;56.60
21540;DHT22;10931;52.164;5.518;2023-04-15T15:51:03;19.70;56.60
21540;DHT22;10931;52.164;5.518;2023-04-15T15:53:29;19.70;56.60
21540;DHT22;10931;52.164;5.518;2023-04-15T15:55:55;19.70;56.60
21540;DHT22;10931;52.164;5.518;2023-04-15T15:58:25;19.70;56.60
21540;DHT22;10931;52.164;5.518;2023-04-15T16:00:52;19.70;56.60